sensor_id;sensor_type;location;lat;lon;timestamp;temperature;humidity
3942;DHT22;1985;48.592;8.850;2023-06-10T00:02:10;21.10;70.10
3942;DHT22;1985;48.592;8.850;2023-06-10T00:04:36;21.00;70.10
3942;DHT22;1985;48.592;8.850;2023-06-10T00:07:05;21.00;70.10
3942;DHT22;1985;48.592;8.850;2023-06-10T00:09:40;20.90;69.40
3942;DHT22;1985;48.592;8.850;2023-06-10T00:12:07;20.80;71.90
3942;DHT22;1985;48.592;8.850;2023-06-10T00:14:34;20.70;70.90
3942;DHT22;1985;48.592;8.850;2023-06-10T00:17:00;20.70;73.30
3942;DHT22;1985;48.592;8.850;2023-06-10T00:19:26;20.60;73.10
3942;DHT22;1985;48.592;8.850;2023-06-10T00:21:55;20.60;72.00
3942;DHT22;1985;48.592;8.850;2023-06-10T00:24:21;20.50;73.40
3942;DHT22;1985;48.592;8.850;2023-06-10T00:26:47;20.50;72.90
3942;DHT22;1985;48.592;8.850;2023-06-10T00:29:13;20.50;72.40
3942;DHT22;1985;48.592;8.850;2023-06-10T00:31:39;20.50;71.90
3942;DHT22;1985;48.592;8.850;2023-06-10T00:34:06;20.50;71.80
3942;DHT22;1985;48.592;8.850;2023-06-10T00:36:32;20.40;71.90
3942;DHT22;1985;48.592;8.850;2023-06-10T00:38:58;20.30;72.50
3942;DHT22;1985;48.592;8.850;2023-06-10T00:41:24;20.20;74.90
3942;DHT22;1985;48.592;8.850;2023-06-10T00:43:51;20.10;75.40
3942;DHT22;1985;48.592;8.850;2023-06-10T00:46:17;20.00;74.20
3942;DHT22;1985;48.592;8.850;2023-06-10T00:48:44;20.00;74.30
3942;DHT22;1985;48.592;8.850;2023-06-10T00:51:10;20.00;74.30
3942;DHT22;1985;48.592;8.850;2023-06-10T00:53:39;20.00;74.00
3942;DHT22;1985;48.592;8.850;2023-06-10T00:56:05;20.00;74.80
3942;DHT22;1985;48.592;8.850;2023-06-10T00:58:31;19.90;75.50
3942;DHT22;1985;48.592;8.850;2023-06-10T01:00:57;19.80;75.20
3942;DHT22;1985;48.592;8.850;2023-06-10T01:03:23;19.80;76.50
3942;DHT22;1985;48.592;8.850;2023-06-10T01:06:01;19.70;75.70
3942;DHT22;1985;48.592;8.850;2023-06-10T01:08:35;19.80;74.70
3942;DHT22;1985;48.592;8.850;2023-06-10T01:11:07;19.80;75.00
3942;DHT22;1985;48.592;8.850;2023-06-10T01:13:36;19.70;74.80
3942;DHT22;1985;48.592;8.850;2023-06-10T01:16:05;19.70;76.20
3942;DHT22;1985;48.592;8.850;2023-06-10T01:18:31;19.60;76.80
3942;DHT22;1985;48.592;8.850;2023-06-10T01:20:56;19.50;76.70
3942;DHT22;1985;48.592;8.850;2023-06-10T01:23:23;19.50;77.40
3942;DHT22;1985;48.592;8.850;2023-06-10T01:26:09;19.50;77.50
3942;DHT22;1985;48.592;8.850;2023-06-10T01:28:43;19.30;79.00
3942;DHT22;1985;48.592;8.850;2023-06-10T01:34:03;19.30;78.70
3942;DHT22;1985;48.592;8.850;2023-06-10T01:36:31;19.20;78.10
3942;DHT22;1985;48.592;8.850;2023-06-10T01:38:59;19.20;78.10
3942;DHT22;1985;48.592;8.850;2023-06-10T01:41:25;19.10;80.60
3942;DHT22;1985;48.592;8.850;2023-06-10T01:43:51;19.10;79.60
3942;DHT22;1985;48.592;8.850;2023-06-10T01:46:16;19.00;81.20
3942;DHT22;1985;48.592;8.850;2023-06-10T01:48:46;19.00;80.10
3942;DHT22;1985;48.592;8.850;2023-06-10T01:51:12;19.10;80.30
3942;DHT22;1985;48.592;8.850;2023-06-10T01:53:37;19.10;80.00
3942;DHT22;1985;48.592;8.850;2023-06-10T01:56:03;19.10;79.80
3942;DHT22;1985;48.592;8.850;2023-06-10T01:58:29;19.00;81.30
3942;DHT22;1985;48.592;8.850;2023-06-10T02:00:54;19.10;80.20
3942;DHT22;1985;48.592;8.850;2023-06-10T02:03:20;19.00;80.90
3942;DHT22;1985;48.592;8.850;2023-06-10T02:05:46;19.00;80.80
3942;DHT22;1985;48.592;8.850;2023-06-10T02:08:11;19.00;80.40
3942;DHT22;1985;48.592;8.850;2023-06-10T02:10:37;19.00;81.00
3942;DHT22;1985;48.592;8.850;2023-06-10T02:13:02;19.00;80.50
3942;DHT22;1985;48.592;8.850;2023-06-10T02:15:28;19.10;80.30
3942;DHT22;1985;48.592;8.850;2023-06-10T02:17:53;19.10;79.80
3942;DHT22;1985;48.592;8.850;2023-06-10T02:20:20;19.20;79.70
3942;DHT22;1985;48.592;8.850;2023-06-10T02:22:46;19.20;79.30
3942;DHT22;1985;48.592;8.850;2023-06-10T02:25:12;19.20;79.20
3942;DHT22;1985;48.592;8.850;2023-06-10T02:27:37;19.10;79.90
3942;DHT22;1985;48.592;8.850;2023-06-10T02:30:03;19.00;79.20
3942;DHT22;1985;48.592;8.850;2023-06-10T02:32:29;18.90;80.90
3942;DHT22;1985;48.592;8.850;2023-06-10T02:34:55;18.70;82.40
3942;DHT22;1985;48.592;8.850;2023-06-10T02:37:20;18.60;82.40
3942;DHT22;1985;48.592;8.850;2023-06-10T02:39:46;18.60;82.60
3942;DHT22;1985;48.592;8.850;2023-06-10T02:42:12;18.60;82.40
3942;DHT22;1985;48.592;8.850;2023-06-10T02:44:38;18.60;82.80
3942;DHT22;1985;48.592;8.850;2023-06-10T02:47:04;18.60;83.00
3942;DHT22;1985;48.592;8.850;2023-06-10T02:49:30;18.50;82.90
3942;DHT22;1985;48.592;8.850;2023-06-10T02:51:55;18.50;82.90
3942;DHT22;1985;48.592;8.850;2023-06-10T02:54:23;18.60;82.60
3942;DHT22;1985;48.592;8.850;2023-06-10T02:56:49;18.60;83.10
3942;DHT22;1985;48.592;8.850;2023-06-10T02:59:17;18.50;84.00
3942;DHT22;1985;48.592;8.850;2023-06-10T03:01:43;18.60;83.50
3942;DHT22;1985;48.592;8.850;2023-06-10T03:04:08;18.60;83.50
3942;DHT22;1985;48.592;8.850;2023-06-10T03:06:35;18.60;83.50
3942;DHT22;1985;48.592;8.850;2023-06-10T03:09:01;18.60;83.40
3942;DHT22;1985;48.592;8.850;2023-06-10T03:11:27;18.60;82.90
3942;DHT22;1985;48.592;8.850;2023-06-10T03:13:53;18.60;83.30
3942;DHT22;1985;48.592;8.850;2023-06-10T03:16:19;18.50;83.50
3942;DHT22;1985;48.592;8.850;2023-06-10T03:18:45;18.60;83.70
3942;DHT22;1985;48.592;8.850;2023-06-10T03:21:11;18.60;83.70
3942;DHT22;1985;48.592;8.850;2023-06-10T03:23:36;18.60;83.50
3942;DHT22;1985;48.592;8.850;2023-06-10T03:26:03;18.60;83.60
3942;DHT22;1985;48.592;8.850;2023-06-10T03:28:30;18.60;83.80
3942;DHT22;1985;48.592;8.850;2023-06-10T03:30:56;18.70;83.80
3942;DHT22;1985;48.592;8.850;2023-06-10T03:33:22;18.70;83.60
3942;DHT22;1985;48.592;8.850;2023-06-10T03:35:47;18.70;83.50
3942;DHT22;1985;48.592;8.850;2023-06-10T03:38:13;18.70;83.80
3942;DHT22;1985;48.592;8.850;2023-06-10T03:40:39;18.70;83.70
3942;DHT22;1985;48.592;8.850;2023-06-10T03:43:04;18.50;84.30
3942;DHT22;1985;48.592;8.850;2023-06-10T03:45:30;18.50;84.50
3942;DHT22;1985;48.592;8.850;2023-06-10T03:47:57;18.50;84.60
3942;DHT22;1985;48.592;8.850;2023-06-10T03:50:23;18.60;84.30
3942;DHT22;1985;48.592;8.850;2023-06-10T03:52:50;18.60;84.20
3942;DHT22;1985;48.592;8.850;2023-06-10T03:55:16;18.60;84.30
3942;DHT22;1985;48.592;8.850;2023-06-10T03:57:42;18.70;84.20
3942;DHT22;1985;48.592;8.850;2023-06-10T04:00:08;18.70;84.20
3942;DHT22;1985;48.592;8.850;2023-06-10T04:02:38;18.80;84.40
3942;DHT22;1985;48.592;8.850;2023-06-10T04:05:11;18.80;84.30
3942;DHT22;1985;48.592;8.850;2023-06-10T04:07:37;18.90;84.30
3942;DHT22;1985;48.592;8.850;2023-06-10T04:10:04;18.90;84.40
3942;DHT22;1985;48.592;8.850;2023-06-10T04:12:30;19.00;84.30
3942;DHT22;1985;48.592;8.850;2023-06-10T04:14:56;19.00;84.40
3942;DHT22;1985;48.592;8.850;2023-06-10T04:17:21;19.10;84.70
3942;DHT22;1985;48.592;8.850;2023-06-10T04:19:47;19.10;84.40
3942;DHT22;1985;48.592;8.850;2023-06-10T04:22:13;19.10;84.50
3942;DHT22;1985;48.592;8.850;2023-06-10T04:24:38;19.20;84.50
3942;DHT22;1985;48.592;8.850;2023-06-10T04:27:04;19.20;84.40
3942;DHT22;1985;48.592;8.850;2023-06-10T04:29:30;19.30;84.40
3942;DHT22;1985;48.592;8.850;2023-06-10T04:31:56;19.30;84.30
3942;DHT22;1985;48.592;8.850;2023-06-10T04:34:21;19.30;84.70
3942;DHT22;1985;48.592;8.850;2023-06-10T04:36:47;19.40;85.00
3942;DHT22;1985;48.592;8.850;2023-06-10T04:39:13;19.40;85.30
3942;DHT22;1985;48.592;8.850;2023-06-10T04:41:38;19.50;85.40
3942;DHT22;1985;48.592;8.850;2023-06-10T04:44:04;19.60;85.60
3942;DHT22;1985;48.592;8.850;2023-06-10T04:46:32;19.60;85.60
3942;DHT22;1985;48.592;8.850;2023-06-10T04:48:58;19.70;85.80
3942;DHT22;1985;48.592;8.850;2023-06-10T04:51:24;19.80;85.40
3942;DHT22;1985;48.592;8.850;2023-06-10T04:53:49;19.80;84.80
3942;DHT22;1985;48.592;8.850;2023-06-10T04:56:15;19.80;84.20
3942;DHT22;1985;48.592;8.850;2023-06-10T04:58:41;19.80;83.60
3942;DHT22;1985;48.592;8.850;2023-06-10T05:01:07;19.90;83.50
3942;DHT22;1985;48.592;8.850;2023-06-10T05:03:32;19.90;83.10
3942;DHT22;1985;48.592;8.850;2023-06-10T05:05:58;19.90;83.10
3942;DHT22;1985;48.592;8.850;2023-06-10T05:08:24;20.00;83.50
3942;DHT22;1985;48.592;8.850;2023-06-10T05:10:49;20.00;83.60
3942;DHT22;1985;48.592;8.850;2023-06-10T05:13:16;20.10;83.80
3942;DHT22;1985;48.592;8.850;2023-06-10T05:15:43;20.10;83.80
3942;DHT22;1985;48.592;8.850;2023-06-10T05:18:10;20.20;83.70
3942;DHT22;1985;48.592;8.850;2023-06-10T05:20:38;20.20;84.00
3942;DHT22;1985;48.592;8.850;2023-06-10T05:23:03;20.20;84.70
3942;DHT22;1985;48.592;8.850;2023-06-10T05:25:33;20.20;84.50
3942;DHT22;1985;48.592;8.850;2023-06-10T05:27:59;20.30;84.20
3942;DHT22;1985;48.592;8.850;2023-06-10T05:30:24;20.30;84.20
3942;DHT22;1985;48.592;8.850;2023-06-10T05:32:51;20.40;84.30
3942;DHT22;1985;48.592;8.850;2023-06-10T05:35:17;20.50;84.00
3942;DHT22;1985;48.592;8.850;2023-06-10T05:37:43;20.50;83.70
3942;DHT22;1985;48.592;8.850;2023-06-10T05:40:09;20.60;83.60
3942;DHT22;1985;48.592;8.850;2023-06-10T05:42:35;20.70;83.50
3942;DHT22;1985;48.592;8.850;2023-06-10T05:45:01;20.70;83.20
3942;DHT22;1985;48.592;8.850;2023-06-10T05:47:27;20.80;82.90
3942;DHT22;1985;48.592;8.850;2023-06-10T05:49:53;20.80;82.60
3942;DHT22;1985;48.592;8.850;2023-06-10T05:52:19;20.90;82.60
3942;DHT22;1985;48.592;8.850;2023-06-10T05:54:44;21.00;82.20
3942;DHT22;1985;48.592;8.850;2023-06-10T05:57:10;20.90;81.70
3942;DHT22;1985;48.592;8.850;2023-06-10T05:59:36;21.00;82.10
3942;DHT22;1985;48.592;8.850;2023-06-10T06:02:01;20.90;82.50
3942;DHT22;1985;48.592;8.850;2023-06-10T06:04:27;21.00;82.60
3942;DHT22;1985;48.592;8.850;2023-06-10T06:06:53;21.00;82.00
3942;DHT22;1985;48.592;8.850;2023-06-10T06:09:18;21.00;82.30
3942;DHT22;1985;48.592;8.850;2023-06-10T06:11:44;21.00;82.60
3942;DHT22;1985;48.592;8.850;2023-06-10T06:14:09;21.00;82.90
3942;DHT22;1985;48.592;8.850;2023-06-10T06:16:35;21.20;83.10
3942;DHT22;1985;48.592;8.850;2023-06-10T06:19:01;21.20;83.00
3942;DHT22;1985;48.592;8.850;2023-06-10T06:21:26;21.30;83.20
3942;DHT22;1985;48.592;8.850;2023-06-10T06:23:52;21.30;82.60
3942;DHT22;1985;48.592;8.850;2023-06-10T06:26:18;21.30;83.30
3942;DHT22;1985;48.592;8.850;2023-06-10T06:28:43;21.40;83.30
3942;DHT22;1985;48.592;8.850;2023-06-10T06:31:09;21.40;83.50
3942;DHT22;1985;48.592;8.850;2023-06-10T06:33:35;21.40;83.10
3942;DHT22;1985;48.592;8.850;2023-06-10T06:36:00;21.40;83.30
3942;DHT22;1985;48.592;8.850;2023-06-10T06:38:26;21.50;83.30
3942;DHT22;1985;48.592;8.850;2023-06-10T06:40:52;21.60;82.40
3942;DHT22;1985;48.592;8.850;2023-06-10T06:43:17;21.40;83.20
3942;DHT22;1985;48.592;8.850;2023-06-10T06:45:44;21.40;83.40
3942;DHT22;1985;48.592;8.850;2023-06-10T06:48:11;21.40;83.40
3942;DHT22;1985;48.592;8.850;2023-06-10T06:50:37;21.40;83.90
3942;DHT22;1985;48.592;8.850;2023-06-10T06:53:03;21.30;84.30
3942;DHT22;1985;48.592;8.850;2023-06-10T06:55:29;21.30;85.00
3942;DHT22;1985;48.592;8.850;2023-06-10T06:57:55;21.50;85.60
3942;DHT22;1985;48.592;8.850;2023-06-10T07:00:21;21.60;85.70
3942;DHT22;1985;48.592;8.850;2023-06-10T07:02:47;21.80;85.60
3942;DHT22;1985;48.592;8.850;2023-06-10T07:05:13;21.90;84.70
3942;DHT22;1985;48.592;8.850;2023-06-10T07:07:38;22.10;84.90
3942;DHT22;1985;48.592;8.850;2023-06-10T07:10:04;22.20;85.40
3942;DHT22;1985;48.592;8.850;2023-06-10T07:12:30;22.30;84.50
3942;DHT22;1985;48.592;8.850;2023-06-10T07:14:56;22.30;83.40
3942;DHT22;1985;48.592;8.850;2023-06-10T07:17:21;22.30;83.80
3942;DHT22;1985;48.592;8.850;2023-06-10T07:19:47;22.40;83.50
3942;DHT22;1985;48.592;8.850;2023-06-10T07:22:14;22.40;83.20
3942;DHT22;1985;48.592;8.850;2023-06-10T07:24:40;22.50;83.40
3942;DHT22;1985;48.592;8.850;2023-06-10T07:27:06;22.50;83.80
3942;DHT22;1985;48.592;8.850;2023-06-10T07:29:32;22.60;83.70
3942;DHT22;1985;48.592;8.850;2023-06-10T07:31:58;22.60;82.80
3942;DHT22;1985;48.592;8.850;2023-06-10T07:34:23;22.70;83.50
3942;DHT22;1985;48.592;8.850;2023-06-10T07:36:49;22.90;83.90
3942;DHT22;1985;48.592;8.850;2023-06-10T07:39:15;22.90;83.30
3942;DHT22;1985;48.592;8.850;2023-06-10T07:41:41;23.00;82.50
3942;DHT22;1985;48.592;8.850;2023-06-10T07:44:06;23.00;82.60
3942;DHT22;1985;48.592;8.850;2023-06-10T07:46:32;23.10;82.70
3942;DHT22;1985;48.592;8.850;2023-06-10T07:48:57;23.10;81.80
3942;DHT22;1985;48.592;8.850;2023-06-10T07:51:23;23.20;82.10
3942;DHT22;1985;48.592;8.850;2023-06-10T07:53:49;23.10;81.40
3942;DHT22;1985;48.592;8.850;2023-06-10T07:56:15;23.20;81.00
3942;DHT22;1985;48.592;8.850;2023-06-10T07:58:40;23.20;80.10
3942;DHT22;1985;48.592;8.850;2023-06-10T08:01:06;23.30;80.60
3942;DHT22;1985;48.592;8.850;2023-06-10T08:03:32;23.30;79.30
3942;DHT22;1985;48.592;8.850;2023-06-10T08:05:58;23.40;78.80
3942;DHT22;1985;48.592;8.850;2023-06-10T08:08:26;23.40;78.00
3942;DHT22;1985;48.592;8.850;2023-06-10T08:10:54;23.50;78.90
3942;DHT22;1985;48.592;8.850;2023-06-10T08:13:20;23.60;77.00
3942;DHT22;1985;48.592;8.850;2023-06-10T08:15:59;23.70;77.50
3942;DHT22;1985;48.592;8.850;2023-06-10T08:18:24;23.80;77.00
3942;DHT22;1985;48.592;8.850;2023-06-10T08:20:50;23.80;75.30
3942;DHT22;1985;48.592;8.850;2023-06-10T08:23:16;23.90;75.50
3942;DHT22;1985;48.592;8.850;2023-06-10T08:25:41;23.90;75.80
3942;DHT22;1985;48.592;8.850;2023-06-10T08:28:07;23.90;76.20
3942;DHT22;1985;48.592;8.850;2023-06-10T08:30:33;23.90;75.70
3942;DHT22;1985;48.592;8.850;2023-06-10T08:32:59;24.00;76.30
3942;DHT22;1985;48.592;8.850;2023-06-10T08:35:24;24.10;76.30
3942;DHT22;1985;48.592;8.850;2023-06-10T08:37:50;24.10;75.60
3942;DHT22;1985;48.592;8.850;2023-06-10T08:40:16;24.20;75.60
3942;DHT22;1985;48.592;8.850;2023-06-10T08:43:16;24.20;74.90
3942;DHT22;1985;48.592;8.850;2023-06-10T08:45:35;24.20;74.60
3942;DHT22;1985;48.592;8.850;2023-06-10T08:48:05;24.30;73.20
3942;DHT22;1985;48.592;8.850;2023-06-10T08:50:36;24.40;74.50
3942;DHT22;1985;48.592;8.850;2023-06-10T08:53:06;24.50;74.80
3942;DHT22;1985;48.592;8.850;2023-06-10T08:55:35;24.50;74.60
3942;DHT22;1985;48.592;8.850;2023-06-10T08:58:02;24.60;74.00
3942;DHT22;1985;48.592;8.850;2023-06-10T09:00:29;24.60;74.10
3942;DHT22;1985;48.592;8.850;2023-06-10T09:02:56;24.70;75.20
3942;DHT22;1985;48.592;8.850;2023-06-10T09:05:22;24.70;74.20
3942;DHT22;1985;48.592;8.850;2023-06-10T09:07:48;24.90;75.10
3942;DHT22;1985;48.592;8.850;2023-06-10T09:10:15;25.00;71.80
3942;DHT22;1985;48.592;8.850;2023-06-10T09:12:41;25.10;70.80
3942;DHT22;1985;48.592;8.850;2023-06-10T09:15:07;25.00;71.30
3942;DHT22;1985;48.592;8.850;2023-06-10T09:17:34;25.00;70.80
3942;DHT22;1985;48.592;8.850;2023-06-10T09:20:02;25.00;70.90
3942;DHT22;1985;48.592;8.850;2023-06-10T09:22:28;24.90;71.60
3942;DHT22;1985;48.592;8.850;2023-06-10T09:25:05;25.00;72.20
3942;DHT22;1985;48.592;8.850;2023-06-10T09:27:31;25.10;70.50
3942;DHT22;1985;48.592;8.850;2023-06-10T09:30:00;25.10;70.30
3942;DHT22;1985;48.592;8.850;2023-06-10T09:32:26;24.90;69.90
3942;DHT22;1985;48.592;8.850;2023-06-10T09:34:52;24.80;71.00
3942;DHT22;1985;48.592;8.850;2023-06-10T09:37:23;24.90;72.20
3942;DHT22;1985;48.592;8.850;2023-06-10T09:40:06;25.20;72.50
3942;DHT22;1985;48.592;8.850;2023-06-10T09:42:36;25.40;70.70
3942;DHT22;1985;48.592;8.850;2023-06-10T09:45:07;25.50;69.80
3942;DHT22;1985;48.592;8.850;2023-06-10T09:47:33;25.50;70.80
3942;DHT22;1985;48.592;8.850;2023-06-10T09:49:59;25.70;70.30
3942;DHT22;1985;48.592;8.850;2023-06-10T09:52:27;25.80;69.80
3942;DHT22;1985;48.592;8.850;2023-06-10T09:55:01;25.90;69.00
3942;DHT22;1985;48.592;8.850;2023-06-10T09:57:31;26.00;68.60
3942;DHT22;1985;48.592;8.850;2023-06-10T10:00:06;26.10;67.80
3942;DHT22;1985;48.592;8.850;2023-06-10T10:02:35;26.20;66.50
3942;DHT22;1985;48.592;8.850;2023-06-10T10:05:08;26.30;67.60
3942;DHT22;1985;48.592;8.850;2023-06-10T10:07:34;26.40;69.20
3942;DHT22;1985;48.592;8.850;2023-06-10T10:10:01;26.40;67.50
3942;DHT22;1985;48.592;8.850;2023-06-10T10:12:27;26.50;67.20
3942;DHT22;1985;48.592;8.850;2023-06-10T10:14:54;26.80;66.60
3942;DHT22;1985;48.592;8.850;2023-06-10T10:17:20;27.00;65.00
3942;DHT22;1985;48.592;8.850;2023-06-10T10:19:53;27.40;64.20
3942;DHT22;1985;48.592;8.850;2023-06-10T10:22:23;27.40;63.70
3942;DHT22;1985;48.592;8.850;2023-06-10T10:24:56;27.10;64.20
3942;DHT22;1985;48.592;8.850;2023-06-10T10:27:54;27.20;64.70
3942;DHT22;1985;48.592;8.850;2023-06-10T10:30:23;27.20;64.70
3942;DHT22;1985;48.592;8.850;2023-06-10T10:32:57;27.50;62.60
3942;DHT22;1985;48.592;8.850;2023-06-10T10:35:25;27.70;63.90
3942;DHT22;1985;48.592;8.850;2023-06-10T10:37:54;27.80;62.50
3942;DHT22;1985;48.592;8.850;2023-06-10T10:40:21;27.90;61.10
3942;DHT22;1985;48.592;8.850;2023-06-10T10:42:49;28.10;62.40
3942;DHT22;1985;48.592;8.850;2023-06-10T10:45:15;28.50;60.30
3942;DHT22;1985;48.592;8.850;2023-06-10T10:47:42;28.90;59.80
3942;DHT22;1985;48.592;8.850;2023-06-10T10:50:18;29.20;61.40
3942;DHT22;1985;48.592;8.850;2023-06-10T10:52:56;29.00;56.60
3942;DHT22;1985;48.592;8.850;2023-06-10T10:55:23;29.00;57.40
3942;DHT22;1985;48.592;8.850;2023-06-10T10:58:06;29.40;58.30
3942;DHT22;1985;48.592;8.850;2023-06-10T11:00:32;29.60;55.90
3942;DHT22;1985;48.592;8.850;2023-06-10T11:03:06;29.30;55.20
3942;DHT22;1985;48.592;8.850;2023-06-10T11:08:08;28.30;56.30
3942;DHT22;1985;48.592;8.850;2023-06-10T11:10:37;28.10;56.60
3942;DHT22;1985;48.592;8.850;2023-06-10T11:13:18;28.30;57.70
3942;DHT22;1985;48.592;8.850;2023-06-10T11:15:46;28.50;58.40
3942;DHT22;1985;48.592;8.850;2023-06-10T11:28:43;28.30;58.20
3942;DHT22;1985;48.592;8.850;2023-06-10T11:31:49;28.00;58.50
3942;DHT22;1985;48.592;8.850;2023-06-10T11:34:21;27.70;59.00
3942;DHT22;1985;48.592;8.850;2023-06-10T11:36:49;27.50;59.50
3942;DHT22;1985;48.592;8.850;2023-06-10T11:39:15;27.40;59.50
3942;DHT22;1985;48.592;8.850;2023-06-10T11:41:43;27.20;59.30
3942;DHT22;1985;48.592;8.850;2023-06-10T11:44:10;27.00;59.40
3942;DHT22;1985;48.592;8.850;2023-06-10T11:46:37;27.00;60.10
3942;DHT22;1985;48.592;8.850;2023-06-10T11:49:04;27.40;60.70
3942;DHT22;1985;48.592;8.850;2023-06-10T11:51:40;27.90;60.30
3942;DHT22;1985;48.592;8.850;2023-06-10T11:54:10;28.30;58.90
3942;DHT22;1985;48.592;8.850;2023-06-10T11:56:36;28.20;58.00
3942;DHT22;1985;48.592;8.850;2023-06-10T11:59:03;27.80;59.10
3942;DHT22;1985;48.592;8.850;2023-06-10T12:01:30;27.40;59.70
3942;DHT22;1985;48.592;8.850;2023-06-10T12:04:16;27.20;60.20
3942;DHT22;1985;48.592;8.850;2023-06-10T12:09:17;27.70;59.80
3942;DHT22;1985;48.592;8.850;2023-06-10T12:11:43;27.70;57.50
3942;DHT22;1985;48.592;8.850;2023-06-10T12:14:10;27.80;58.00
3942;DHT22;1985;48.592;8.850;2023-06-10T12:16:35;27.70;57.40
3942;DHT22;1985;48.592;8.850;2023-06-10T12:19:02;27.80;58.00
3942;DHT22;1985;48.592;8.850;2023-06-10T12:21:29;28.10;57.00
3942;DHT22;1985;48.592;8.850;2023-06-10T12:24:08;28.60;56.30
3942;DHT22;1985;48.592;8.850;2023-06-10T12:29:23;28.80;55.40
3942;DHT22;1985;48.592;8.850;2023-06-10T12:31:57;28.60;54.80
3942;DHT22;1985;48.592;8.850;2023-06-10T12:34:33;28.30;54.60
3942;DHT22;1985;48.592;8.850;2023-06-10T12:37:04;28.20;55.10
3942;DHT22;1985;48.592;8.850;2023-06-10T12:39:31;28.00;56.30
3942;DHT22;1985;48.592;8.850;2023-06-10T12:41:57;27.90;56.30
3942;DHT22;1985;48.592;8.850;2023-06-10T12:44:30;28.10;55.70
3942;DHT22;1985;48.592;8.850;2023-06-10T12:47:00;28.20;54.60
3942;DHT22;1985;48.592;8.850;2023-06-10T12:49:26;28.20;54.60
3942;DHT22;1985;48.592;8.850;2023-06-10T12:51:52;28.20;55.30
3942;DHT22;1985;48.592;8.850;2023-06-10T12:54:18;28.30;56.20
3942;DHT22;1985;48.592;8.850;2023-06-10T12:56:43;28.60;54.60
3942;DHT22;1985;48.592;8.850;2023-06-10T12:59:09;28.80;55.00
3942;DHT22;1985;48.592;8.850;2023-06-10T13:01:36;29.00;53.00
3942;DHT22;1985;48.592;8.850;2023-06-10T13:04:05;29.00;53.50
3942;DHT22;1985;48.592;8.850;2023-06-10T13:06:31;29.00;53.70
3942;DHT22;1985;48.592;8.850;2023-06-10T13:08:58;28.90;54.20
3942;DHT22;1985;48.592;8.850;2023-06-10T13:11:24;29.00;53.30
3942;DHT22;1985;48.592;8.850;2023-06-10T13:13:51;29.20;53.20
3942;DHT22;1985;48.592;8.850;2023-06-10T13:16:17;29.30;53.70
3942;DHT22;1985;48.592;8.850;2023-06-10T13:18:42;29.10;53.30
3942;DHT22;1985;48.592;8.850;2023-06-10T13:21:08;29.00;53.00
3942;DHT22;1985;48.592;8.850;2023-06-10T13:23:34;28.80;54.10
3942;DHT22;1985;48.592;8.850;2023-06-10T13:25:59;28.60;53.00
3942;DHT22;1985;48.592;8.850;2023-06-10T13:28:25;28.40;53.60
3942;DHT22;1985;48.592;8.850;2023-06-10T13:30:51;28.30;54.00
3942;DHT22;1985;48.592;8.850;2023-06-10T13:33:16;28.30;54.30
3942;DHT22;1985;48.592;8.850;2023-06-10T13:35:42;28.20;54.70
3942;DHT22;1985;48.592;8.850;2023-06-10T13:38:08;27.80;56.30
3942;DHT22;1985;48.592;8.850;2023-06-10T13:40:34;27.80;56.20
3942;DHT22;1985;48.592;8.850;2023-06-10T13:43:00;28.00;56.10
3942;DHT22;1985;48.592;8.850;2023-06-10T13:45:26;28.30;55.60
3942;DHT22;1985;48.592;8.850;2023-06-10T13:47:51;28.20;54.80
3942;DHT22;1985;48.592;8.850;2023-06-10T13:50:17;28.20;55.20
3942;DHT22;1985;48.592;8.850;2023-06-10T13:52:43;28.20;54.70
3942;DHT22;1985;48.592;8.850;2023-06-10T13:55:08;28.30;55.10
3942;DHT22;1985;48.592;8.850;2023-06-10T13:57:34;28.50;54.50
3942;DHT22;1985;48.592;8.850;2023-06-10T14:00:00;28.60;54.80
3942;DHT22;1985;48.592;8.850;2023-06-10T14:02:26;28.50;55.40
3942;DHT22;1985;48.592;8.850;2023-06-10T14:04:51;28.40;55.50
3942;DHT22;1985;48.592;8.850;2023-06-10T14:07:17;28.60;56.10
3942;DHT22;1985;48.592;8.850;2023-06-10T14:09:42;28.80;55.30
3942;DHT22;1985;48.592;8.850;2023-06-10T14:12:09;29.00;54.40
3942;DHT22;1985;48.592;8.850;2023-06-10T14:14:34;29.00;54.20
3942;DHT22;1985;48.592;8.850;2023-06-10T14:17:01;29.00;54.60
3942;DHT22;1985;48.592;8.850;2023-06-10T14:19:28;29.00;55.00
3942;DHT22;1985;48.592;8.850;2023-06-10T14:21:54;28.70;54.10
3942;DHT22;1985;48.592;8.850;2023-06-10T14:24:21;28.40;54.70
3942;DHT22;1985;48.592;8.850;2023-06-10T14:26:46;28.40;54.70
3942;DHT22;1985;48.592;8.850;2023-06-10T14:29:12;28.20;54.70
3942;DHT22;1985;48.592;8.850;2023-06-10T14:31:43;28.30;55.00
3942;DHT22;1985;48.592;8.850;2023-06-10T14:34:09;28.30;55.30
3942;DHT22;1985;48.592;8.850;2023-06-10T14:36:34;28.50;55.80
3942;DHT22;1985;48.592;8.850;2023-06-10T14:39:00;28.50;54.50
3942;DHT22;1985;48.592;8.850;2023-06-10T14:41:26;28.50;54.20
3942;DHT22;1985;48.592;8.850;2023-06-10T14:43:52;28.60;54.40
3942;DHT22;1985;48.592;8.850;2023-06-10T14:46:18;28.70;54.40
3942;DHT22;1985;48.592;8.850;2023-06-10T14:48:46;28.80;53.90
3942;DHT22;1985;48.592;8.850;2023-06-10T14:51:12;28.80;53.90
3942;DHT22;1985;48.592;8.850;2023-06-10T14:53:37;29.00;54.10
3942;DHT22;1985;48.592;8.850;2023-06-10T14:56:03;28.90;54.20
3942;DHT22;1985;48.592;8.850;2023-06-10T14:58:30;28.50;54.10
3942;DHT22;1985;48.592;8.850;2023-06-10T15:00:56;28.30;54.70
3942;DHT22;1985;48.592;8.850;2023-06-10T15:03:21;28.00;55.60
3942;DHT22;1985;48.592;8.850;2023-06-10T15:05:47;27.60;55.50
3942;DHT22;1985;48.592;8.850;2023-06-10T15:08:13;27.50;56.10
3942;DHT22;1985;48.592;8.850;2023-06-10T15:10:38;27.50;56.00
3942;DHT22;1985;48.592;8.850;2023-06-10T15:13:04;27.50;56.50
3942;DHT22;1985;48.592;8.850;2023-06-10T15:15:30;27.50;56.10
3942;DHT22;1985;48.592;8.850;2023-06-10T15:17:55;27.50;56.20
3942;DHT22;1985;48.592;8.850;2023-06-10T15:20:21;27.50;56.20
3942;DHT22;1985;48.592;8.850;2023-06-10T15:22:47;27.40;56.60
3942;DHT22;1985;48.592;8.850;2023-06-10T15:25:13;27.40;56.50
3942;DHT22;1985;48.592;8.850;2023-06-10T15:27:38;27.40;56.20
3942;DHT22;1985;48.592;8.850;2023-06-10T15:30:05;27.30;56.40
3942;DHT22;1985;48.592;8.850;2023-06-10T15:32:31;27.30;56.70
3942;DHT22;1985;48.592;8.850;2023-06-10T15:34:56;27.30;56.80
3942;DHT22;1985;48.592;8.850;2023-06-10T15:37:22;27.30;56.10
3942;DHT22;1985;48.592;8.850;2023-06-10T15:39:47;27.30;56.50
3942;DHT22;1985;48.592;8.850;2023-06-10T15:42:13;27.30;56.20
3942;DHT22;1985;48.592;8.850;2023-06-10T15:44:39;27.30;56.50
3942;DHT22;1985;48.592;8.850;2023-06-10T15:47:05;27.50;57.60
3942;DHT22;1985;48.592;8.850;2023-06-10T15:49:30;27.60;57.00
3942;DHT22;1985;48.592;8.850;2023-06-10T15:51:56;27.70;56.40
3942;DHT22;1985;48.592;8.850;2023-06-10T15:54:22;27.60;56.10
3942;DHT22;1985;48.592;8.850;2023-06-10T15:56:47;27.70;56.10
3942;DHT22;1985;48.592;8.850;2023-06-10T15:59:13;27.70;56.00
3942;DHT22;1985;48.592;8.850;2023-06-10T16:01:38;27.60;55.50
3942;DHT22;1985;48.592;8.850;2023-06-10T16:04:04;27.70;55.40
3942;DHT22;1985;48.592;8.850;2023-06-10T16:06:30;27.60;55.90
3942;DHT22;1985;48.592;8.850;2023-06-10T16:08:55;27.60;56.00
3942;DHT22;1985;48.592;8.850;2023-06-10T16:11:22;27.50;56.30
3942;DHT22;1985;48.592;8.850;2023-06-10T16:13:48;27.50;56.60
3942;DHT22;1985;48.592;8.850;2023-06-10T16:16:14;27.40;57.60
3942;DHT22;1985;48.592;8.850;2023-06-10T16:18:40;27.20;57.20
3942;DHT22;1985;48.592;8.850;2023-06-10T16:21:05;27.10;57.60
3942;DHT22;1985;48.592;8.850;2023-06-10T16:23:31;27.00;57.60